Time;durP1;ratioP1;P1;durP2;ratioP2;P2;SDS_P1;SDS_P2;PMS_P1;PMS_P2;Temp;Humidity;BMP_temperature;BMP_pressure;BME280_temperature;BME280_humidity;BME280_pressure;Samples;Min_cycle;Max_cycle;Signal;HPM_P1;HPM_P2
2023/08/14 00:01:15;;;;;;;1.90;1.80;;;;;;;20.64;100.00;98041.41;1224779;75;2918064;-67
2023/08/14 00:03:48;;;;;;;2.45;2.00;;;;;;;20.60;100.00;98043.75;1223801;75;2928065;-68
2023/08/14 00:06:20;;;;;;;2.10;1.80;;;;;;;20.68;100.00;98046.63;1224637;75;2921416;-69
2023/08/14 00:08:54;;;;;;;2.30;1.95;;;;;;;20.66;100.00;98038.09;1224580;75;2929597;-67
2023/08/14 00:11:29;;;;;;;2.20;2.00;;;;;;;20.60;100.00;98034.66;1224172;75;2929504;-67
2023/08/14 00:14:02;;;;;;;2.90;2.70;;;;;;;20.25;100.00;98036.53;1224104;75;2925487;-68
2023/08/14 00:16:34;;;;;;;3.30;3.00;;;;;;;20.42;100.00;98031.44;1224823;75;2917667;-68
2023/08/14 00:19:07;;;;;;;2.80;2.60;;;;;;;20.38;100.00;98033.75;1224699;75;2920648;-69
2023/08/14 00:21:40;;;;;;;2.70;2.50;;;;;;;20.50;100.00;98025.97;1223568;75;2930440;-69
2023/08/14 00:24:13;;;;;;;2.30;2.10;;;;;;;20.59;100.00;98028.34;1223883;75;2920207;-66
2023/08/14 00:26:48;;;;;;;2.55;2.25;;;;;;;20.47;100.00;98026.28;1224897;75;2908880;-69
2023/08/14 00:29:20;;;;;;;2.30;2.10;;;;;;;20.43;100.00;98026.59;1224237;75;2922238;-70
2023/08/14 00:31:53;;;;;;;2.35;2.00;;;;;;;20.38;100.00;98027.47;1223892;75;2924014;-67
2023/08/14 00:34:26;;;;;;;2.00;1.85;;;;;;;20.31;100.00;98023.28;1224308;75;2916617;-69
2023/08/14 00:36:58;;;;;;;2.35;1.85;;;;;;;20.31;100.00;98019.75;1224397;75;2920898;-68
2023/08/14 00:39:31;;;;;;;2.50;2.30;;;;;;;20.26;100.00;98026.91;1223729;75;2920384;-71
2023/08/14 00:42:06;;;;;;;2.45;1.85;;;;;;;20.24;100.00;98028.72;1224564;75;2920180;-66
2023/08/14 00:44:39;;;;;;;2.35;2.00;;;;;;;20.20;100.00;98029.81;1224510;75;2929194;-68
2023/08/14 00:47:13;;;;;;;2.40;2.20;;;;;;;20.03;100.00;98034.88;1224682;75;2924180;-65
2023/08/14 00:49:46;;;;;;;2.65;2.30;;;;;;;20.05;100.00;98037.16;1224250;75;2926702;-70
2023/08/14 00:52:19;;;;;;;2.15;1.95;;;;;;;20.10;100.00;98037.03;1223483;75;2930153;-69
2023/08/14 00:54:51;;;;;;;2.90;2.30;;;;;;;20.06;100.00;98049.75;1224309;75;2924943;-70
2023/08/14 00:57:27;;;;;;;2.95;2.20;;;;;;;19.98;100.00;98042.03;1224441;75;2932204;-66
2023/08/14 01:00:00;;;;;;;2.55;2.35;;;;;;;19.95;100.00;98047.91;1223788;75;2925202;-66
2023/08/14 01:02:33;;;;;;;3.35;2.60;;;;;;;19.92;100.00;98058.06;1224816;75;2918122;-68
2023/08/14 01:05:06;;;;;;;2.75;2.20;;;;;;;19.85;100.00;98053.13;1224324;75;2920456;-67
2023/08/14 01:07:39;;;;;;;2.50;2.30;;;;;;;19.74;100.00;98051.25;1224912;75;2926306;-65
2023/08/14 01:10:14;;;;;;;2.85;2.60;;;;;;;19.70;100.00;98053.63;1224887;75;2917775;-69
2023/08/14 01:12:57;;;;;;;2.80;2.60;;;;;;;19.55;100.00;98065.19;1224361;75;2924224;-67
2023/08/14 01:15:35;;;;;;;2.80;2.60;;;;;;;19.57;100.00;98057.06;1223816;75;2931120;-67
2023/08/14 01:18:09;;;;;;;2.80;2.60;;;;;;;19.62;100.00;98057.50;1224801;75;2927624;-67
2023/08/14 01:20:43;;;;;;;4.20;2.60;;;;;;;19.65;100.00;98054.44;1223863;75;2926132;-68
2023/08/14 01:23:24;;;;;;;2.75;2.55;;;;;;;19.69;100.00;98048.59;1225066;75;2921335;-68
2023/08/14 01:26:00;;;;;;;2.90;2.60;;;;;;;19.48;100.00;98051.91;1224205;75;2931271;-66
2023/08/14 01:28:33;;;;;;;2.80;2.60;;;;;;;19.22;100.00;98043.41;1224758;75;2919483;-67
2023/08/14 01:31:06;;;;;;;3.40;3.10;;;;;;;19.45;100.00;98044.59;1224501;75;2923331;-68
2023/08/14 01:33:39;;;;;;;5.15;2.90;;;;;;;19.48;100.00;98046.34;1223847;75;2927589;-68
2023/08/14 01:36:29;;;;;;;3.30;2.60;;;;;;;19.41;100.00;98046.97;1225293;75;2922926;-65
2023/08/14 01:39:09;;;;;;;2.35;1.95;;;;;;;19.54;100.00;98038.69;1224534;75;2923202;-68
2023/08/14 01:41:57;;;;;;;2.50;2.30;;;;;;;19.54;100.00;98037.94;1224257;67;2920142;-67
2023/08/14 01:44:33;;;;;;;2.90;2.35;;;;;;;19.25;100.00;98043.13;1224243;75;2922900;-67
2023/08/14 01:47:09;;;;;;;3.45;2.55;;;;;;;19.37;100.00;98052.06;1224433;75;2920827;-69
2023/08/14 01:49:43;;;;;;;2.70;2.30;;;;;;;19.06;100.00;98043.13;1225108;75;2909408;-68
2023/08/14 01:52:16;;;;;;;3.00;2.65;;;;;;;19.12;100.00;98040.28;1223909;75;2932444;-69
2023/08/14 01:54:49;;;;;;;2.35;2.15;;;;;;;19.22;100.00;98043.41;1223929;75;2929015;-68
2023/08/14 01:57:24;;;;;;;2.50;2.30;;;;;;;18.97;100.00;98046.28;1224061;75;2926349;-67
2023/08/14 01:59:57;;;;;;;2.80;2.60;;;;;;;19.03;100.00;98046.97;1223800;75;2924823;-66
2023/08/14 02:02:29;;;;;;;2.50;2.30;;;;;;;19.11;100.00;98044.34;1223833;75;2922689;-68
2023/08/14 02:05:02;;;;;;;3.05;2.20;;;;;;;19.10;100.00;98049.13;1224515;75;2927057;-66
2023/08/14 02:07:35;;;;;;;2.45;2.00;;;;;;;19.10;100.00;98040.81;1224169;75;2919240;-66
2023/08/14 02:10:09;;;;;;;2.90;2.40;;;;;;;18.99;100.00;98043.72;1224418;75;2923284;-67
2023/08/14 02:12:44;;;;;;;2.95;2.65;;;;;;;18.92;100.00;98036.75;1224477;75;2928757;-66
2023/08/14 02:15:17;;;;;;;2.80;2.30;;;;;;;19.01;100.00;98052.28;1223555;75;2922342;-66
2023/08/14 02:17:49;;;;;;;2.50;2.30;;;;;;;18.97;100.00;98051.81;1223991;75;2927376;-69
2023/08/14 02:20:22;;;;;;;2.60;2.40;;;;;;;18.90;100.00;98047.59;1224313;75;2920845;-69
2023/08/14 02:22:55;;;;;;;2.40;2.20;;;;;;;18.89;100.00;98045.38;1223959;75;2924586;-68
2023/08/14 02:25:27;;;;;;;2.80;2.60;;;;;;;18.76;100.00;98043.25;1223821;75;2925541;-67
2023/08/14 02:28:02;;;;;;;2.65;2.45;;;;;;;18.81;100.00;98045.22;1223428;75;2923805;-68
2023/08/14 02:30:35;;;;;;;2.30;1.95;;;;;;;18.87;100.00;98037.56;1224136;75;2919070;-69
2023/08/14 02:33:08;;;;;;;3.10;2.80;;;;;;;18.76;100.00;98048.81;1224624;75;2936280;-67
2023/08/14 02:35:41;;;;;;;2.65;2.45;;;;;;;18.74;100.00;98043.75;1224247;75;2927116;-66
2023/08/14 02:38:13;;;;;;;3.50;3.10;;;;;;;18.69;100.00;98044.56;1224746;75;2923056;-66
2023/08/14 02:40:46;;;;;;;2.90;2.40;;;;;;;18.70;100.00;98039.75;1223908;75;2927122;-68
2023/08/14 02:43:21;;;;;;;2.20;2.05;;;;;;;18.66;100.00;98037.28;1224156;75;2930281;-68
2023/08/14 02:45:54;;;;;;;2.45;2.20;;;;;;;18.69;100.00;98050.13;1224289;75;2923029;-69
2023/08/14 02:48:26;;;;;;;2.10;1.90;;;;;;;18.62;100.00;98039.59;1223849;75;2923899;-66
2023/08/14 02:50:59;;;;;;;3.35;2.10;;;;;;;18.59;100.00;98043.44;1224268;75;2926653;-68
2023/08/14 02:53:31;;;;;;;2.50;2.05;;;;;;;18.61;100.00;98040.13;1224555;75;2923056;-68
2023/08/14 02:56:04;;;;;;;2.30;2.10;;;;;;;18.61;100.00;98040.88;1223648;75;2921813;-67
2023/08/14 02:58:39;;;;;;;2.30;2.10;;;;;;;18.59;100.00;98043.44;1223977;75;2925354;-67
2023/08/14 03:01:12;;;;;;;2.30;2.10;;;;;;;18.59;100.00;98045.44;1223884;75;2933091;-68
2023/08/14 03:03:45;;;;;;;2.10;1.90;;;;;;;18.57;100.00;98036.88;1223816;75;2922057;-68
2023/08/14 03:06:17;;;;;;;2.10;1.90;;;;;;;18.31;100.00;98044.47;1224449;75;2926421;-66
2023/08/14 03:08:51;;;;;;;3.30;2.50;;;;;;;18.10;100.00;98037.88;1223455;75;2940613;-69
2023/08/14 03:11:23;;;;;;;3.80;2.65;;;;;;;18.07;100.00;98041.69;1222772;75;2922042;-68
2023/08/14 03:13:59;;;;;;;2.80;2.55;;;;;;;18.25;100.00;98038.22;1223937;75;2929449;-68
2023/08/14 03:16:31;;;;;;;2.50;2.30;;;;;;;18.32;100.00;98039.66;1223963;75;2922798;-67
2023/08/14 03:19:04;;;;;;;2.55;2.35;;;;;;;18.31;100.00;98044.47;1223213;75;2925815;-66
2023/08/14 03:21:37;;;;;;;2.80;2.50;;;;;;;18.24;100.00;98047.06;1223540;75;2923650;-68
2023/08/14 03:24:10;;;;;;;2.70;2.50;;;;;;;18.28;100.00;98042.75;1222845;75;2930258;-64
2023/08/14 03:26:42;;;;;;;2.85;2.55;;;;;;;18.22;100.00;98047.56;1223140;75;2923173;-69
2023/08/14 03:29:18;;;;;;;2.40;2.20;;;;;;;18.31;100.00;98046.50;1223858;75;2929971;-65
2023/08/14 03:31:50;;;;;;;2.20;2.00;;;;;;;18.25;100.00;98045.78;1224091;75;2930896;-68
2023/08/14 03:34:23;;;;;;;2.50;2.30;;;;;;;18.04;100.00;98046.25;1224465;75;2923917;-66
2023/08/14 03:36:56;;;;;;;5.25;4.75;;;;;;;17.86;100.00;98055.94;1224200;75;2924072;-68
2023/08/14 03:39:28;;;;;;;4.55;4.05;;;;;;;18.07;100.00;98050.00;1224020;75;2922250;-67
2023/08/14 03:42:01;;;;;;;4.25;3.95;;;;;;;17.99;100.00;98051.81;1223830;75;2920317;-69
2023/08/14 03:44:36;;;;;;;3.80;3.40;;;;;;;17.91;100.00;98057.16;1224638;75;2923421;-67
2023/08/14 03:47:09;;;;;;;3.65;3.35;;;;;;;17.86;100.00;98050.41;1224483;75;2932046;-68
2023/08/14 03:49:41;;;;;;;2.90;2.70;;;;;;;17.88;100.00;98056.19;1224118;75;2923552;-68
2023/08/14 03:52:14;;;;;;;3.65;3.20;;;;;;;17.88;100.00;98049.91;1223973;75;2924486;-68
2023/08/14 03:54:47;;;;;;;3.05;2.75;;;;;;;17.97;100.00;98048.81;1224335;75;2923282;-67
2023/08/14 03:57:19;;;;;;;2.80;2.60;;;;;;;17.95;100.00;98048.59;1224121;75;2925334;-68
2023/08/14 03:59:55;;;;;;;2.40;2.20;;;;;;;17.90;100.00;98054.94;1224124;75;2921013;-70
2023/08/14 04:02:27;;;;;;;2.75;2.50;;;;;;;17.99;100.00;98060.13;1223718;75;2923959;-69
2023/08/14 04:05:00;;;;;;;2.50;2.30;;;;;;;18.02;100.00;98070.19;1223819;75;2920842;-68
2023/08/14 04:07:33;;;;;;;2.65;2.45;;;;;;;17.95;100.00;98067.97;1224485;75;2922188;-68
2023/08/14 04:10:06;;;;;;;3.70;2.55;;;;;;;17.95;100.00;98062.44;1224452;75;2925072;-69
2023/08/14 04:12:39;;;;;;;3.45;2.00;;;;;;;17.88;100.00;98064.50;1224930;75;2848037;-67
2023/08/14 04:15:22;;;;;;;3.15;2.40;;;;;;;17.96;100.00;98061.91;1224598;75;2919296;-68
2023/08/14 04:17:55;;;;;;;2.30;2.10;;;;;;;17.95;100.00;98065.94;1223678;75;2930153;-67
2023/08/14 04:20:27;;;;;;;2.65;2.05;;;;;;;18.00;100.00;98059.59;1224895;75;2925799;-67
2023/08/14 04:23:00;;;;;;;2.45;2.25;;;;;;;17.95;100.00;98062.44;1224446;75;2927054;-67
2023/08/14 04:25:32;;;;;;;2.75;2.50;;;;;;;17.91;100.00;98062.69;1224691;75;2921705;-69
2023/08/14 04:28:05;;;;;;;2.55;2.05;;;;;;;18.01;100.00;98072.19;1223905;75;2921026;-67
2023/08/14 04:30:41;;;;;;;2.50;2.30;;;;;;;18.05;100.00;98067.13;1224133;75;2929666;-66
2023/08/14 04:33:13;;;;;;;2.55;2.35;;;;;;;17.89;100.00;98068.00;1224300;75;2921330;-68
2023/08/14 04:35:46;;;;;;;2.50;2.30;;;;;;;17.78;100.00;98074.38;1223416;75;2928456;-68
2023/08/14 04:38:18;;;;;;;2.95;2.15;;;;;;;17.94;100.00;98072.75;1223970;75;2925304;-68
2023/08/14 04:40:51;;;;;;;2.90;2.65;;;;;;;17.93;100.00;98074.03;1225096;75;2926062;-69
2023/08/14 04:43:24;;;;;;;3.70;2.30;;;;;;;18.00;100.00;98073.47;1224576;75;2924288;-67
2023/08/14 04:45:59;;;;;;;3.40;3.10;;;;;;;18.02;100.00;98068.16;1223826;75;2936909;-69
2023/08/14 04:48:31;;;;;;;2.90;2.50;;;;;;;18.12;100.00;98081.69;1223338;75;2923740;-69
2023/08/14 04:51:04;;;;;;;3.40;3.10;;;;;;;18.15;100.00;98083.41;1224337;75;2925379;-67
2023/08/14 04:53:37;;;;;;;3.20;2.90;;;;;;;18.15;100.00;98084.16;1211893;75;3808875;-68
2023/08/14 04:56:09;;;;;;;4.50;3.85;;;;;;;18.18;100.00;98088.66;1224238;75;2920882;-69
2023/08/14 04:58:42;;;;;;;4.05;3.65;;;;;;;18.40;100.00;98081.41;1225014;75;2921839;-69
2023/08/14 05:01:17;;;;;;;3.85;3.55;;;;;;;18.43;100.00;98075.59;1224006;75;2923164;-68
2023/08/14 05:03:50;;;;;;;5.10;4.60;;;;;;;18.33;100.00;98077.22;1223584;75;2926001;-69
2023/08/14 05:06:22;;;;;;;4.55;4.15;;;;;;;18.09;100.00;98072.41;1224325;75;2924501;-71
2023/08/14 05:08:55;;;;;;;7.35;6.65;;;;;;;18.47;100.00;98075.28;1224155;75;2924985;-69
2023/08/14 05:11:28;;;;;;;8.05;7.25;;;;;;;18.21;100.00;98076.56;1224074;75;2924407;-68
2023/08/14 05:14:01;;;;;;;10.80;9.70;;;;;;;18.43;100.00;98078.38;1223695;75;2923403;-69
2023/08/14 05:16:36;;;;;;;10.35;9.35;;;;;;;18.43;100.00;98083.91;1224605;75;2924478;-68
2023/08/14 05:19:09;;;;;;;30.15;27.10;;;;;;;18.69;100.00;98080.63;1223299;75;2945363;-69
2023/08/14 05:21:41;;;;;;;16.95;14.75;;;;;;;18.88;100.00;98079.91;1224007;75;2927668;-67
2023/08/14 05:24:15;;;;;;;11.90;10.80;;;;;;;18.82;100.00;98084.81;1224144;75;2924228;-68
2023/08/14 05:26:48;;;;;;;9.15;8.30;;;;;;;18.93;100.00;98090.22;1224266;75;2925434;-68
2023/08/14 05:29:20;;;;;;;6.60;5.90;;;;;;;19.10;100.00;98093.53;1223906;75;2939068;-69
2023/08/14 05:31:56;;;;;;;5.45;4.95;;;;;;;19.13;100.00;98089.72;1223989;75;2922257;-66
2023/08/14 05:34:28;;;;;;;4.20;3.80;;;;;;;19.34;100.00;98086.44;1224299;75;2926312;-68
2023/08/14 05:37:01;;;;;;;3.50;3.20;;;;;;;19.42;100.00;98092.13;1224255;75;2919799;-69
2023/08/14 05:39:33;;;;;;;4.20;3.50;;;;;;;19.41;100.00;98085.84;1224366;75;2924493;-69
2023/08/14 05:42:06;;;;;;;3.40;3.10;;;;;;;19.53;100.00;98089.94;1224104;75;2923144;-67
2023/08/14 05:44:39;;;;;;;3.50;3.00;;;;;;;19.61;100.00;98087.31;1223772;75;2921867;-68
2023/08/14 05:47:14;;;;;;;3.55;3.00;;;;;;;19.62;100.00;98088.06;1224121;75;2925452;-67
2023/08/14 05:49:46;;;;;;;4.40;4.00;;;;;;;19.70;100.00;98094.50;1223437;75;2930623;-68
2023/08/14 05:52:19;;;;;;;5.35;3.50;;;;;;;19.77;100.00;98091.91;1223860;75;2928144;-67
2023/08/14 05:54:52;;;;;;;5.00;4.50;;;;;;;19.79;100.00;98094.91;1224336;75;2924997;-68
2023/08/14 05:57:24;;;;;;;4.65;4.25;;;;;;;19.95;100.00;98101.47;1190464;75;5486395;-69
2023/08/14 05:59:57;;;;;;;4.95;4.45;;;;;;;20.16;100.00;98092.56;1224262;75;2927362;-70
2023/08/14 06:02:32;;;;;;;4.10;3.70;;;;;;;20.29;100.00;98106.47;1223309;75;2925198;-69
2023/08/14 06:05:05;;;;;;;5.90;4.85;;;;;;;20.12;100.00;98103.97;1223854;75;2937460;-68
2023/08/14 06:07:38;;;;;;;5.90;5.30;;;;;;;20.19;100.00;98105.38;1224622;75;2927228;-68
2023/08/14 06:10:11;;;;;;;5.55;5.05;;;;;;;20.35;100.00;98100.84;1224371;75;2924902;-70
2023/08/14 06:12:45;;;;;;;5.60;4.40;;;;;;;20.61;100.00;98100.91;1216026;75;3085401;-68
2023/08/14 06:15:18;;;;;;;8.50;6.65;;;;;;;20.31;100.00;98103.16;1224388;75;2927634;-70
2023/08/14 06:17:54;;;;;;;6.95;6.35;;;;;;;20.33;100.00;98097.84;1222696;75;3028049;-70
2023/08/14 06:20:27;;;;;;;7.35;6.00;;;;;;;20.59;100.00;98097.88;1221598;75;2924821;-69
2023/08/14 06:23:00;;;;;;;6.95;5.70;;;;;;;20.68;100.00;98105.06;1220479;75;2924309;-70
2023/08/14 06:25:33;;;;;;;6.35;5.75;;;;;;;20.92;100.00;98100.56;1217758;75;3100339;-69
2023/08/14 06:28:07;;;;;;;5.65;5.00;;;;;;;20.97;100.00;98100.47;1222631;75;2926817;-71
2023/08/14 06:30:39;;;;;;;6.20;5.60;;;;;;;20.92;100.00;98106.13;1222757;75;2925534;-70
2023/08/14 06:33:14;;;;;;;5.35;4.85;;;;;;;21.19;100.00;98101.28;1224537;75;2920799;-69
2023/08/14 06:35:47;;;;;;;8.70;6.80;;;;;;;21.06;100.00;98102.78;1223778;75;2923245;-68
2023/08/14 06:38:19;;;;;;;7.80;7.10;;;;;;;21.05;100.00;98101.31;1222958;75;2925254;-69
2023/08/14 06:40:52;;;;;;;5.45;4.95;;;;;;;21.38;100.00;98101.13;1223248;75;2917610;-69
2023/08/14 06:43:25;;;;;;;6.20;5.60;;;;;;;21.28;100.00;98093.22;1223092;75;2928279;-68
2023/08/14 06:45:57;;;;;;;6.45;5.85;;;;;;;21.58;100.00;98106.03;1223836;75;2920527;-69
2023/08/14 06:48:32;;;;;;;6.95;5.55;;;;;;;21.66;100.00;98103.34;1223206;75;2928258;-68
2023/08/14 06:51:05;;;;;;;7.35;6.65;;;;;;;21.68;100.00;98104.28;1222989;75;2920963;-71
2023/08/14 06:53:38;;;;;;;6.00;5.50;;;;;;;22.04;100.00;98108.53;1223805;75;2923613;-70
2023/08/14 06:56:10;;;;;;;6.85;6.15;;;;;;;21.67;100.00;98113.19;1222155;75;2922941;-71
2023/08/14 06:58:43;;;;;;;6.40;5.80;;;;;;;22.17;100.00;98111.25;1221926;75;2968778;-70
2023/08/14 07:01:15;;;;;;;4.95;4.55;;;;;;;22.50;100.00;98114.53;1223256;75;2917690;-71
2023/08/14 07:03:51;;;;;;;6.95;4.90;;;;;;;22.34;100.00;98113.66;1223005;75;2924187;-70
2023/08/14 07:06:23;;;;;;;7.20;6.45;;;;;;;22.35;100.00;98112.38;1224184;75;2921517;-72
2023/08/14 07:08:56;;;;;;;6.20;5.70;;;;;;;22.53;100.00;98122.53;1221299;75;2954415;-69
2023/08/14 07:11:31;;;;;;;5.90;4.80;;;;;;;22.92;100.00;98125.56;1223052;75;2920147;-68
2023/08/14 07:14:04;;;;;;;6.40;5.40;;;;;;;22.95;100.00;98130.09;1222979;75;2919698;-71
2023/08/14 07:16:37;;;;;;;5.65;5.10;;;;;;;23.03;100.00;98122.50;1223028;75;2924694;-69
2023/08/14 07:19:12;;;;;;;6.40;5.80;;;;;;;22.73;100.00;98125.88;1220785;75;2927706;-69
2023/08/14 07:21:45;;;;;;;5.80;5.20;;;;;;;23.32;100.00;98125.25;1222152;75;2929299;-70
2023/08/14 07:24:17;;;;;;;4.95;4.45;;;;;;;23.52;100.00;98129.25;1222774;75;2925939;-70
2023/08/14 07:26:50;;;;;;;4.25;3.90;;;;;;;23.75;100.00;98130.09;1222611;75;2927053;-70
2023/08/14 07:29:22;;;;;;;5.30;4.80;;;;;;;23.82;100.00;98131.41;1222150;75;2928768;-72
2023/08/14 07:31:55;;;;;;;4.60;4.20;;;;;;;23.89;100.00;98127.16;1222939;75;2929752;-71
2023/08/14 07:34:31;;;;;;;5.95;5.00;;;;;;;23.89;100.00;98130.69;1222830;75;2944268;-71
2023/08/14 07:37:03;;;;;;;6.75;5.50;;;;;;;23.82;100.00;98128.63;1222160;75;2921807;-70
2023/08/14 07:39:36;;;;;;;6.50;5.20;;;;;;;24.01;100.00;98128.28;1221423;75;2943310;-68
2023/08/14 07:42:09;;;;;;;4.95;4.15;;;;;;;24.28;99.09;98127.94;1222886;75;2928428;-73
2023/08/14 07:44:42;;;;;;;5.50;5.00;;;;;;;23.98;100.00;98121.00;1222501;75;2921405;-69
2023/08/14 07:47:15;;;;;;;5.35;4.70;;;;;;;24.23;100.00;98119.16;1223549;75;2923294;-68
2023/08/14 07:49:50;;;;;;;4.85;4.45;;;;;;;24.13;100.00;98117.50;1221664;75;2924543;-68
2023/08/14 07:52:24;;;;;;;4.90;4.40;;;;;;;24.41;98.48;98120.09;1223614;75;2920918;-70
2023/08/14 07:54:57;;;;;;;3.80;3.50;;;;;;;24.57;98.33;98120.13;1223046;75;2924409;-71
2023/08/14 07:57:29;;;;;;;3.90;3.55;;;;;;;24.79;97.50;98119.31;1222719;75;2923366;-70
2023/08/14 08:00:07;;;;;;;3.90;3.50;;;;;;;24.85;92.70;98125.50;1222894;75;2925660;-72
2023/08/14 08:02:39;;;;;;;3.80;3.40;;;;;;;24.93;90.69;98122.66;1222109;75;2925405;-69
2023/08/14 08:05:15;;;;;;;4.10;3.70;;;;;;;25.41;90.12;98113.56;1222864;75;2923383;-68
2023/08/14 08:07:47;;;;;;;4.25;3.85;;;;;;;25.48;91.52;98110.72;1223414;75;2926230;-69
2023/08/14 08:10:20;;;;;;;4.30;3.90;;;;;;;25.59;81.86;98120.00;1221793;75;2925041;-70
2023/08/14 08:12:53;;;;;;;4.10;3.70;;;;;;;25.78;80.81;98122.34;1222963;75;2926105;-68
2023/08/14 08:15:25;;;;;;;4.10;3.70;;;;;;;26.01;76.57;98113.81;1222429;75;2918635;-72
2023/08/14 08:17:58;;;;;;;5.00;4.35;;;;;;;26.02;80.88;98116.03;1222285;75;2926476;-71
2023/08/14 08:20:33;;;;;;;4.95;4.45;;;;;;;25.89;77.55;98117.06;1221802;75;2928595;-69
2023/08/14 08:23:06;;;;;;;4.90;4.45;;;;;;;26.24;77.91;98114.41;1221822;75;2935535;-72
2023/08/14 08:25:39;;;;;;;4.20;3.60;;;;;;;26.18;76.13;98119.50;1223386;75;2933236;-69
2023/08/14 08:28:12;;;;;;;4.05;3.40;;;;;;;26.46;75.00;98106.38;1202315;75;4549264;-69
2023/08/14 08:30:44;;;;;;;4.00;3.50;;;;;;;26.37;74.14;98107.75;1224431;75;2925504;-69
2023/08/14 08:33:17;;;;;;;4.70;4.30;;;;;;;26.70;75.89;98113.28;1223661;75;2925009;-70
2023/08/14 08:35:52;;;;;;;5.20;4.55;;;;;;;26.71;74.03;98115.50;1222746;75;2927270;-68
2023/08/14 08:38:25;;;;;;;4.00;3.60;;;;;;;26.90;73.89;98114.94;1222496;75;2921434;-71
2023/08/14 08:40:57;;;;;;;5.20;4.65;;;;;;;26.92;73.30;98122.81;1222261;75;2925303;-68
2023/08/14 08:43:31;;;;;;;4.10;3.70;;;;;;;27.33;69.52;98121.22;1222542;75;2923220;-70
2023/08/14 08:46:07;;;;;;;4.85;4.35;;;;;;;27.09;68.37;98124.88;1222735;75;2922645;-71
2023/08/14 08:48:45;;;;;;;4.00;3.60;;;;;;;27.12;67.19;98135.69;1222611;75;2922156;-69
2023/08/14 08:51:22;;;;;;;3.70;3.40;;;;;;;27.56;62.43;98118.13;1222019;75;2939780;-69
2023/08/14 08:53:54;;;;;;;3.05;2.75;;;;;;;27.80;65.27;98127.00;1222995;75;2921419;-69
2023/08/14 08:56:28;;;;;;;4.40;3.70;;;;;;;27.42;68.57;98125.44;1223228;75;2924924;-70
2023/08/14 08:59:01;;;;;;;4.00;3.60;;;;;;;27.80;64.56;98129.81;1222416;75;2927769;-72
2023/08/14 09:01:34;;;;;;;3.80;3.40;;;;;;;27.96;65.06;98124.75;1221994;75;2934891;-69
2023/08/14 09:04:08;;;;;;;3.70;3.40;;;;;;;27.90;65.15;98122.19;1223300;75;2924733;-68
2023/08/14 09:06:43;;;;;;;5.60;3.85;;;;;;;28.04;63.05;98116.91;1222863;75;2922257;-71
2023/08/14 09:09:16;;;;;;;3.40;3.10;;;;;;;28.12;62.08;98122.41;1222701;75;2934155;-70
2023/08/14 09:11:49;;;;;;;4.65;3.65;;;;;;;27.88;59.68;98119.22;1222073;75;2920818;-69
2023/08/14 09:14:21;;;;;;;5.10;4.60;;;;;;;28.34;58.69;98118.50;1222276;75;2919739;-68
2023/08/14 09:16:57;;;;;;;5.90;3.40;;;;;;;28.66;59.74;98125.13;1222984;75;2926847;-69
2023/08/14 09:19:31;;;;;;;4.75;3.50;;;;;;;28.04;59.52;98128.16;1223299;75;2925462;-72
2023/08/14 09:22:07;;;;;;;4.00;3.20;;;;;;;28.06;59.09;98122.69;1222743;75;2924669;-70
2023/08/14 09:24:40;;;;;;;6.30;3.45;;;;;;;27.99;58.63;98121.47;1223004;75;2923224;-69
2023/08/14 09:27:13;;;;;;;3.35;2.85;;;;;;;28.03;57.51;98118.25;1223976;75;2922271;-70
2023/08/14 09:29:46;;;;;;;3.30;2.95;;;;;;;28.24;56.18;98123.38;1221340;75;2925451;-70
2023/08/14 09:32:18;;;;;;;4.20;3.45;;;;;;;28.13;57.27;98109.84;1223047;75;2924364;-70
2023/08/14 09:34:51;;;;;;;3.80;2.95;;;;;;;28.87;57.38;98110.50;1222566;75;2918051;-67
2023/08/14 09:37:27;;;;;;;2.90;2.60;;;;;;;28.83;56.92;98113.00;1223057;75;2921890;-69
2023/08/14 09:40:18;;;;;;;4.50;3.10;;;;;;;27.71;56.07;98108.75;1221830;75;2923541;-71
2023/08/14 09:42:53;;;;;;;3.95;2.80;;;;;;;27.97;55.80;98112.91;1224079;75;2923197;-70
2023/08/14 09:45:28;;;;;;;4.80;3.25;;;;;;;27.89;58.72;98109.44;1222925;75;2924239;-68
2023/08/14 09:48:03;;;;;;;5.40;3.05;;;;;;;28.34;54.95;98107.25;1221823;75;2924417;-69
2023/08/14 09:50:36;;;;;;;2.90;2.55;;;;;;;28.09;54.31;98106.72;1223189;75;2924135;-70
2023/08/14 09:53:11;;;;;;;3.30;2.50;;;;;;;28.65;52.26;98112.41;1222763;75;2920383;-71
2023/08/14 09:55:45;;;;;;;3.75;3.10;;;;;;;28.69;52.60;98118.31;1220740;75;2988780;-70
2023/08/14 09:58:18;;;;;;;4.35;3.90;;;;;;;28.51;53.72;98108.50;1222633;75;2931075;-70
2023/08/14 10:00:51;;;;;;;3.50;3.20;;;;;;;28.39;56.14;98109.03;1221059;75;2971161;-67
2023/08/14 10:03:25;;;;;;;3.10;2.80;;;;;;;29.29;54.40;98104.41;1223491;75;2924792;-69
2023/08/14 10:05:58;;;;;;;3.25;2.45;;;;;;;29.84;52.01;98101.22;1223538;75;2928699;-68
2023/08/14 10:08:37;;;;;;;3.60;3.05;;;;;;;30.19;53.34;98100.75;1223673;75;2918968;-70
2023/08/14 10:11:12;;;;;;;3.20;2.40;;;;;;;30.03;50.27;98095.47;1221129;75;2936817;-69
2023/08/14 10:13:49;;;;;;;3.40;2.60;;;;;;;30.12;49.96;98099.63;1222623;75;2927297;-69
2023/08/14 10:16:27;;;;;;;2.90;2.40;;;;;;;30.02;51.01;98087.59;1222512;75;2923919;-68
2023/08/14 10:19:02;;;;;;;6.30;5.70;;;;;;;30.09;49.37;98093.09;1223426;75;2924087;-68
2023/08/14 10:21:38;;;;;;;4.00;3.60;;;;;;;30.57;48.72;98080.81;1223349;75;2935425;-71
2023/08/14 10:24:15;;;;;;;2.95;2.50;;;;;;;30.67;48.30;98074.34;1223217;75;2924530;-66
2023/08/14 10:26:48;;;;;;;2.50;2.30;;;;;;;30.85;49.36;98072.75;1223819;75;2927916;-69
2023/08/14 10:29:21;;;;;;;2.40;2.20;;;;;;;30.58;48.12;98073.06;1222097;75;2924144;-68
2023/08/14 10:31:55;;;;;;;3.00;2.50;;;;;;;30.79;48.14;98073.06;1223966;75;2927428;-68
2023/08/14 10:34:30;;;;;;;2.85;2.50;;;;;;;30.99;48.02;98075.75;1223539;75;2927288;-69
2023/08/14 10:37:02;;;;;;;2.90;2.60;;;;;;;31.92;48.06;98070.94;1223275;75;2931168;-70
2023/08/14 10:39:40;;;;;;;2.70;2.35;;;;;;;32.59;46.97;98077.84;1223177;75;2924166;-69
2023/08/14 10:42:15;;;;;;;;;;;;;;;32.50;45.74;98067.38;1225289;75;2922993;-69
2023/08/14 10:44:48;;;;;;;6.80;2.40;;;;;;;30.61;46.82;98071.13;1223773;75;2922150;-67
2023/08/14 10:47:21;;;;;;;5.50;2.35;;;;;;;31.31;48.46;98068.59;1223362;75;2924360;-70
2023/08/14 10:49:54;;;;;;;3.05;2.40;;;;;;;31.89;46.73;98069.34;1222955;75;2922896;-72
2023/08/14 10:52:27;;;;;;;3.15;2.35;;;;;;;32.41;45.83;98062.56;1223103;75;2924045;-68
2023/08/14 10:55:03;;;;;;;4.85;2.80;;;;;;;32.74;45.18;98058.81;1223188;75;2924907;-67
2023/08/14 10:57:35;;;;;;;3.45;2.20;;;;;;;32.57;43.40;98066.38;1222659;75;2932192;-70
2023/08/14 11:00:21;;;;;;;2.30;2.05;;;;;;;31.27;42.85;98061.94;1223312;75;2930169;-71
2023/08/14 11:02:55;;;;;;;2.35;1.80;;;;;;;31.60;42.87;98059.09;1223620;75;2928809;-69
2023/08/14 11:05:39;;;;;;;2.45;2.05;;;;;;;31.97;43.93;98053.63;1223188;75;2921883;-69
2023/08/14 11:08:14;;;;;;;1.85;1.65;;;;;;;30.95;42.05;98053.59;1223937;75;2924547;-71
2023/08/14 11:10:51;;;;;;;2.15;1.95;;;;;;;31.09;44.39;98053.03;1223824;75;2918959;-71
2023/08/14 11:13:25;;;;;;;3.00;1.90;;;;;;;31.61;45.40;98055.66;1224046;75;2918376;-72
2023/08/14 11:15:57;;;;;;;3.75;2.00;;;;;;;31.97;44.42;98050.06;1223884;75;2924835;-71
2023/08/14 11:18:31;;;;;;;2.85;2.10;;;;;;;32.67;43.59;98052.78;1223246;75;2926330;-69
2023/08/14 11:21:04;;;;;;;2.60;2.00;;;;;;;32.02;44.17;98048.94;1223546;75;2927341;-69
2023/08/14 11:23:37;;;;;;;2.75;2.10;;;;;;;31.80;44.69;98054.69;1223691;75;2923903;-69
2023/08/14 11:26:13;;;;;;;4.25;2.10;;;;;;;31.52;43.63;98055.78;1224659;75;2872294;-71
2023/08/14 11:28:45;;;;;;;2.85;2.30;;;;;;;32.21;43.52;98062.09;1223840;75;2923506;-69
2023/08/14 11:31:18;;;;;;;2.70;2.10;;;;;;;32.33;43.73;98059.22;1222702;75;2931710;-70
2023/08/14 11:33:51;;;;;;;3.75;2.10;;;;;;;32.28;42.52;98049.03;1223261;75;2922794;-69
2023/08/14 11:36:23;;;;;;;3.70;2.00;;;;;;;32.03;43.29;98045.47;1222332;75;2930865;-68
2023/08/14 11:38:56;;;;;;;2.50;1.90;;;;;;;31.70;44.26;98045.59;1222470;75;2923699;-72
2023/08/14 11:41:31;;;;;;;2.30;2.10;;;;;;;31.97;44.67;98052.88;1221685;75;2929658;-71